createdAt,value
2022-10-31T00:01:35.846Z,11.56
2022-10-31T00:06:34.752Z,11.46
2022-10-31T00:11:33.823Z,11.56
2022-10-31T00:16:33.003Z,11.49
2022-10-31T00:21:33.123Z,11.56
2022-10-31T00:26:33.206Z,11.49
2022-10-31T00:31:31.971Z,11.63
2022-10-31T00:36:32.150Z,11.39
2022-10-31T00:41:31.005Z,11.41
2022-10-31T00:46:29.721Z,11.49
2022-10-31T00:51:28.393Z,11.43
2022-10-31T00:56:27.170Z,11.41
2022-10-31T01:01:26.218Z,11.34
2022-10-31T01:06:25.128Z,11.24
2022-10-31T01:11:24.446Z,11.16
2022-10-31T01:16:25.914Z,11.25
2022-10-31T01:21:28.050Z,11.02
2022-10-31T01:26:32.192Z,11.10
2022-10-31T01:31:37.267Z,11.18
2022-10-31T01:36:38.668Z,11.11
2022-10-31T01:41:43.380Z,11.07
2022-10-31T01:46:47.847Z,11.03
2022-10-31T01:51:53.670Z,10.87
2022-10-31T01:56:56.737Z,10.69
2022-10-31T02:01:55.869Z,10.67
2022-10-31T02:07:03.559Z,10.75
2022-10-31T02:12:03.871Z,10.79
2022-10-31T02:17:02.842Z,10.52
2022-10-31T02:22:07.744Z,10.37
2022-10-31T02:27:33.589Z,10.35
2022-10-31T02:32:38.441Z,10.39
2022-10-31T02:37:51.447Z,10.45
2022-10-31T02:48:19.858Z,10.02
2022-10-31T02:53:18.777Z,10.01
2022-10-31T02:58:23.825Z,9.86
2022-10-31T03:04:01.489Z,9.77
2022-10-31T03:09:38.729Z,9.87
2022-10-31T03:14:49.336Z,9.65
2022-10-31T03:19:52.988Z,9.51
2022-10-31T03:24:53.832Z,9.26
2022-10-31T03:29:57.144Z,9.28
2022-10-31T03:35:00.419Z,9.44
2022-10-31T03:40:03.090Z,9.31
2022-10-31T03:45:06.577Z,9.34
2022-10-31T03:50:08.609Z,9.40
2022-10-31T03:55:16.946Z,9.23
2022-10-31T04:00:17.635Z,9.14
2022-10-31T04:05:20.991Z,9.10
2022-10-31T04:10:22.232Z,9.08
2022-10-31T04:15:23.810Z,9.01
2022-10-31T04:20:37.624Z,8.72
2022-10-31T04:25:37.627Z,8.75
2022-10-31T04:30:36.730Z,8.73
2022-10-31T04:35:36.118Z,8.70
2022-10-31T04:40:34.905Z,8.62
2022-10-31T04:46:05.973Z,8.81
2022-10-31T04:51:04.924Z,8.70
2022-10-31T04:56:04.864Z,8.64
2022-10-31T05:01:10.879Z,8.61
2022-10-31T05:06:09.749Z,8.48
2022-10-31T05:11:12.832Z,8.48
2022-10-31T05:16:11.960Z,8.76
2022-10-31T05:21:30.981Z,8.73
2022-10-31T05:26:35.078Z,8.51
2022-10-31T05:31:33.842Z,8.68
2022-10-31T05:36:33.669Z,8.50
2022-10-31T05:41:42.481Z,8.26
2022-10-31T05:46:48.087Z,8.34
2022-10-31T05:52:05.562Z,8.29
2022-10-31T05:57:11.491Z,8.13
2022-10-31T06:02:10.259Z,8.41
2022-10-31T06:07:27.740Z,8.62
2022-10-31T06:12:26.592Z,8.64
2022-10-31T06:18:03.430Z,8.78
2022-10-31T06:23:07.461Z,8.76
2022-10-31T06:28:07.254Z,9.02
2022-10-31T06:33:24.622Z,9.03
2022-10-31T06:38:33.034Z,9.09
2022-10-31T06:43:33.674Z,9.03
2022-10-31T06:48:51.324Z,9.13
2022-10-31T06:54:04.931Z,9.32
2022-10-31T06:59:03.882Z,9.52
2022-10-31T07:04:38.224Z,9.66
2022-10-31T07:09:37.254Z,9.75
2022-10-31T07:14:37.367Z,9.89
2022-10-31T07:19:36.318Z,11.06
2022-10-31T07:24:35.601Z,12.84
2022-10-31T07:30:04.344Z,14.23
2022-10-31T07:35:04.987Z,14.78
2022-10-31T07:40:19.434Z,14.66
2022-10-31T07:45:20.358Z,14.61
2022-10-31T07:50:42.120Z,14.47
2022-10-31T07:56:03.938Z,13.03
2022-10-31T08:01:02.902Z,12.48
2022-10-31T08:06:11.454Z,12.38
2022-10-31T08:11:30.641Z,12.41
2022-10-31T08:16:30.631Z,12.54
2022-10-31T08:21:33.758Z,12.64
2022-10-31T08:26:33.657Z,12.56
2022-10-31T08:31:34.475Z,13.00
2022-10-31T08:36:54.228Z,13.25
2022-10-31T08:41:59.653Z,13.37
2022-10-31T08:46:58.443Z,13.59
2022-10-31T08:51:57.159Z,13.58
2022-10-31T08:57:00.049Z,13.69
2022-10-31T09:02:19.151Z,13.84
2022-10-31T09:07:21.777Z,13.92
2022-10-31T09:12:20.932Z,14.16
2022-10-31T09:17:27.727Z,14.34
2022-10-31T09:22:46.849Z,14.43
2022-10-31T09:27:45.693Z,14.77
2022-10-31T09:32:44.404Z,14.79
2022-10-31T09:37:43.104Z,15.06
2022-10-31T09:43:16.793Z,15.26
2022-10-31T09:48:54.072Z,15.46
2022-10-31T09:54:12.375Z,15.39
2022-10-31T09:59:29.228Z,15.48
2022-10-31T10:04:33.804Z,15.69
2022-10-31T10:09:42.122Z,15.89
2022-10-31T10:15:16.614Z,15.99
2022-10-31T10:20:33.648Z,16.21
2022-10-31T10:25:41.024Z,16.42
2022-10-31T10:30:52.065Z,16.46
2022-10-31T10:36:01.326Z,16.74
2022-10-31T10:41:05.246Z,16.84
2022-10-31T10:46:44.337Z,17.00
2022-10-31T10:52:19.236Z,17.16
2022-10-31T10:57:25.329Z,17.34
2022-10-31T11:02:27.011Z,17.47
2022-10-31T11:07:25.810Z,17.68
2022-10-31T11:12:33.496Z,17.80
2022-10-31T11:17:34.110Z,17.95
2022-10-31T11:22:33.273Z,18.07
2022-10-31T11:27:32.363Z,18.11
2022-10-31T11:32:31.212Z,18.19
2022-10-31T11:37:36.480Z,18.34
2022-10-31T11:42:43.647Z,18.40
2022-10-31T11:47:56.737Z,18.49
2022-10-31T11:52:58.312Z,18.60
2022-10-31T11:57:57.362Z,18.62
2022-10-31T12:03:17.835Z,18.61
2022-10-31T12:08:16.619Z,18.68
2022-10-31T12:14:03.490Z,18.68
2022-10-31T12:19:07.507Z,18.68
2022-10-31T12:24:20.017Z,18.57
2022-10-31T12:29:32.237Z,18.46
2022-10-31T12:34:52.968Z,18.60
2022-10-31T12:40:04.988Z,18.59
2022-10-31T12:45:14.259Z,18.62
2022-10-31T12:50:36.165Z,18.68
2022-10-31T12:55:47.793Z,18.69
2022-10-31T13:00:57.933Z,18.63
2022-10-31T13:06:00.149Z,18.69
2022-10-31T13:11:21.360Z,18.69
2022-10-31T13:16:25.113Z,18.57
2022-10-31T13:21:50.640Z,18.57
2022-10-31T13:26:53.391Z,18.58
2022-10-31T13:31:52.386Z,18.54
2022-10-31T13:37:01.474Z,18.52
2022-10-31T13:42:43.429Z,18.49
2022-10-31T13:47:44.159Z,18.46
2022-10-31T13:52:43.797Z,18.39
2022-10-31T13:57:46.006Z,18.56
2022-10-31T14:02:49.540Z,18.37
2022-10-31T14:07:48.844Z,18.19
2022-10-31T14:12:49.366Z,18.05
2022-10-31T14:17:51.537Z,18.01
2022-10-31T14:22:51.120Z,17.84
2022-10-31T14:27:52.992Z,17.71
2022-10-31T14:33:23.024Z,17.40
2022-10-31T14:38:45.408Z,17.24
2022-10-31T14:44:14.944Z,17.05
2022-10-31T14:49:43.110Z,16.77
2022-10-31T14:54:47.182Z,16.51
2022-10-31T14:59:54.630Z,16.27
2022-10-31T15:04:56.683Z,16.08
2022-10-31T15:10:00.644Z,15.89
2022-10-31T15:15:12.793Z,15.69
2022-10-31T15:20:18.089Z,15.51
2022-10-31T15:25:22.360Z,15.35
2022-10-31T15:30:28.343Z,15.17
2022-10-31T15:35:29.521Z,15.00
2022-10-31T15:40:29.258Z,14.92
2022-10-31T15:45:31.461Z,14.85
2022-10-31T15:50:41.343Z,14.68
2022-10-31T15:55:50.054Z,14.55
2022-10-31T16:01:25.389Z,14.33
2022-10-31T16:06:24.306Z,14.22
2022-10-31T16:11:34.998Z,14.03
2022-10-31T16:16:36.519Z,14.00
2022-10-31T16:21:38.279Z,13.86
2022-10-31T16:26:40.118Z,13.71
2022-10-31T16:31:41.484Z,13.62
2022-10-31T16:36:40.796Z,13.51
2022-10-31T16:41:42.288Z,13.46
2022-10-31T16:46:41.135Z,13.34
2022-10-31T16:51:39.877Z,13.21
2022-10-31T16:56:39.317Z,13.14
2022-10-31T17:01:39.897Z,13.08
2022-10-31T17:06:38.569Z,13.01
2022-10-31T17:11:43.073Z,12.91
2022-10-31T17:16:44.269Z,12.93
2022-10-31T17:21:42.955Z,12.77
2022-10-31T17:26:42.374Z,12.74
2022-10-31T17:31:42.386Z,12.62
2022-10-31T17:36:41.211Z,12.67
2022-10-31T17:41:39.870Z,12.62
2022-10-31T17:46:39.158Z,12.59
2022-10-31T17:51:38.244Z,12.41
2022-10-31T17:56:36.900Z,12.38
2022-10-31T18:01:35.744Z,12.33
2022-10-31T18:06:34.618Z,12.35
2022-10-31T18:11:33.439Z,12.14
2022-10-31T18:16:32.478Z,12.18
2022-10-31T18:21:32.554Z,12.37
2022-10-31T18:26:31.645Z,12.36
2022-10-31T18:31:30.485Z,12.57
2022-10-31T18:36:29.232Z,12.70
2022-10-31T18:41:27.992Z,12.74
2022-10-31T18:46:27.923Z,12.77
2022-10-31T18:51:27.373Z,12.67
2022-10-31T18:56:28.077Z,12.53
2022-10-31T19:01:26.852Z,12.46
2022-10-31T19:06:27.386Z,12.51
2022-10-31T19:11:26.499Z,12.59
2022-10-31T19:16:25.274Z,12.57
2022-10-31T19:21:24.536Z,12.74
2022-10-31T19:26:24.854Z,12.58
2022-10-31T19:31:24.206Z,12.64
2022-10-31T19:36:23.824Z,12.51
2022-10-31T19:41:26.214Z,12.60
2022-10-31T19:46:51.755Z,12.54
2022-10-31T19:51:44.068Z,12.51
2022-10-31T19:56:42.777Z,12.44
2022-10-31T20:01:41.730Z,12.61
2022-10-31T20:06:41.396Z,12.61
2022-10-31T20:11:40.883Z,12.64
2022-10-31T20:16:39.853Z,12.82
2022-10-31T20:21:40.550Z,12.76
2022-10-31T20:26:40.803Z,12.68
2022-10-31T20:31:40.022Z,12.35
2022-10-31T20:36:38.868Z,12.45
2022-10-31T20:41:38.545Z,12.49
2022-10-31T20:46:37.306Z,12.63
2022-10-31T20:51:36.407Z,12.59
2022-10-31T20:56:35.459Z,12.58
2022-10-31T21:01:36.691Z,12.59
2022-10-31T21:06:35.666Z,12.54
2022-10-31T21:11:34.609Z,12.60
2022-10-31T21:16:36.247Z,12.68
2022-10-31T21:21:37.015Z,12.64
2022-10-31T21:26:39.514Z,13.28
2022-10-31T21:31:40.050Z,12.84
2022-10-31T21:36:39.208Z,12.69
2022-10-31T21:41:37.977Z,12.81
2022-10-31T21:46:38.986Z,12.62
2022-10-31T21:51:37.781Z,12.53
2022-10-31T21:56:36.885Z,12.40
2022-10-31T22:01:36.159Z,12.41
2022-10-31T22:06:36.029Z,12.22
2022-10-31T22:11:35.052Z,12.28
2022-10-31T22:16:36.347Z,12.22
2022-10-31T22:21:44.227Z,12.13
2022-10-31T22:26:43.095Z,12.22
2022-10-31T22:31:44.338Z,12.06
2022-10-31T22:36:44.563Z,11.93
2022-10-31T22:41:43.238Z,11.91
2022-10-31T22:46:41.974Z,11.83
2022-10-31T22:51:41.678Z,11.72
2022-10-31T22:56:40.557Z,11.85
2022-10-31T23:01:39.639Z,11.77
2022-10-31T23:06:39.033Z,11.66
2022-10-31T23:11:39.595Z,11.59
2022-10-31T23:16:47.608Z,11.63
2022-10-31T23:21:55.018Z,11.67
2022-10-31T23:27:10.921Z,11.81
2022-10-31T23:32:36.129Z,11.85
2022-10-31T23:37:37.172Z,11.65
2022-10-31T23:42:35.915Z,11.68
2022-10-31T23:47:35.821Z,11.69
2022-10-31T23:52:37.158Z,11.74
2022-10-31T23:57:35.931Z,11.69
